1888 Tropical Storm NOT_NAMED (1888304N15310)


IBTrACS version v04r00. Visit IBTrACS website for data access.
Please direct all questions to the IBTrACS Q and A forum

Storm track - Intensity - Wind Radii - Intensity Data - Source Data - All data

Summary Information

Storm ID 1888304N15310
Start Oct 29 12Z
Max Intensity 50 kt (Nov 4 12Z)
End Nov 8 18Z
ATCF IDs
Track status Best track data.

Storm track plot

Map of storm track

Intensity plots

Map of storm track

Radial wind information

No radial wind information for this storm


Position and Intensity Table

BASIN ISO_TIME_________ NATURE LAT LON MLC WIND
degrees north degrees east kts
NA 1888-10-29 12:00:00 TS 14.70 -50.50 30
NA 15:00:00 TS 14.86 -50.76 30
NA 18:00:00 TS 15.00 -51.00 30
NA 21:00:00 TS 15.10 -51.20 30
NA 1888-10-30 00:00:00 TS 15.20 -51.40 30
NA 03:00:00 TS 15.35 -51.65 30
NA 06:00:00 TS 15.50 -51.90 30
NA 09:00:00 TS 15.61 -52.10 30
NA 12:00:00 TS 15.70 -52.30 30
NA 15:00:00 TS 15.80 -52.55 30
NA 18:00:00 TS 15.90 -52.80 30
NA 21:00:00 TS 16.01 -53.00 30
NA 1888-10-31 00:00:00 TS 16.10 -53.20 30
NA 03:00:00 TS 16.15 -53.45 30
NA 06:00:00 TS 16.20 -53.70 30
NA 09:00:00 TS 16.28 -53.91 30
NA 12:00:00 TS 16.40 -54.10 30
NA 15:00:00 TS 16.54 -54.31 30
NA 18:00:00 TS 16.70 -54.50 30
NA 21:00:00 TS 16.85 -54.65 30
NA 1888-11-01 00:00:00 TS 17.00 -54.80 30
NA 03:00:00 TS 17.16 -55.00 30
NA 06:00:00 TS 17.30 -55.20 30
NA 09:00:00 TS 17.39 -55.34 32
NA 12:00:00 TS 17.50 -55.50 35
NA 15:00:00 TS 17.69 -55.73 35
NA 18:00:00 TS 17.90 -56.00 35
NA 21:00:00 TS 18.10 -56.25 35
NA 1888-11-02 00:00:00 TS 18.30 -56.50 35
NA 03:00:00 TS 18.51 -56.75 35
NA 06:00:00 TS 18.70 -57.00 35
NA 09:00:00 TS 18.85 -57.25 37
NA 12:00:00 TS 19.00 -57.50 40
NA 15:00:00 TS 19.19 -57.75 40
NA 18:00:00 TS 19.40 -58.00 40
NA 21:00:00 TS 19.60 -58.25 40
NA 1888-11-03 00:00:00 TS 19.80 -58.50 40
NA 03:00:00 TS 20.01 -58.75 40
NA 06:00:00 TS 20.20 -59.00 40
NA 09:00:00 TS 20.33 -59.27 42
NA 12:00:00 TS 20.50 -59.50 45
NA 15:00:00 TS 20.83 -59.67 45
NA 18:00:00 TS 21.20 -59.80 45
NA 21:00:00 TS 21.51 -59.91 45
NA 1888-11-04 00:00:00 TS 21.80 -60.00 45
NA 03:00:00 TS 22.10 -60.11 45
NA 06:00:00 TS 22.40 -60.20 45
NA 09:00:00 TS 22.71 -60.27 47
NA 12:00:00 TS 23.00 -60.30 50
NA 15:00:00 TS 23.26 -60.35 50
NA 18:00:00 TS 23.50 -60.20 50
NA 21:00:00 TS 23.75 -59.64 50
NA 1888-11-05 00:00:00 TS 24.00 -59.00 50
NA 03:00:00 TS 24.25 -58.66 50
NA 06:00:00 TS 24.50 -58.40 50
NA 09:00:00 TS 24.73 -58.09 50
NA 12:00:00 TS 25.00 -57.70 50
NA 15:00:00 TS 25.34 -57.17 50
NA 18:00:00 TS 25.70 -56.60 50
NA 21:00:00 TS 26.05 -56.10 50
NA 1888-11-06 00:00:00 TS 26.40 -55.60 50
NA 03:00:00 TS 26.76 -55.05 50
NA 06:00:00 TS 27.10 -54.50 50
NA 09:00:00 TS 27.36 -54.01 50
NA 12:00:00 TS 27.70 -53.50 50
NA 15:00:00 TS 28.26 -52.91 50
NA 18:00:00 TS 28.90 -52.30 50
NA 21:00:00 TS 29.50 -51.74 50
NA 1888-11-07 00:00:00 TS 30.10 -51.20 50
NA 03:00:00 TS 30.70 -50.65 50
NA 06:00:00 TS 31.30 -50.10 50
NA 09:00:00 TS 31.94 -49.56 47
NA 12:00:00 TS 32.50 -49.00 45
NA 15:00:00 TS 32.89 -48.36 45
NA 18:00:00 TS 33.20 -47.70 45
NA 21:00:00 TS 33.51 -47.10 45
NA 1888-11-08 00:00:00 ET 33.80 -46.50 45
NA 03:00:00 ET 34.10 -45.85 42
NA 06:00:00 ET 34.40 -45.20 40
NA 09:00:00 ET 34.16 -44.65 37
NA 12:00:00 ET 35.00 -44.00 35
NA 15:00:00 ET 38.18 -43.02 35
NA 18:00:00 ET 42.80 -41.70 35

Source Information

Agency Information
USA
TOKYO
CMA
HKO
NEWDELHI
REUNION
BOM
NADI
WELLINGTON
DS824
TD9636
TD9635
NEUMANN
MLC

All available IBTrACS Data

SEASON BASIN SUBBASIN ISO_TIME_________ NATURE LAT LON DIST2LAND LANDFALL IFLAG USA SSHS MLC LAT MLC LON MLC CLASS MLC WIND STORM SPEED STORM DIR
Year degrees north degrees east km km 1 degrees north degrees east kts kts degrees
1888 NA NA 1888-10-29 12:00:00 TS 14.70 -50.50 1065 1061 _____________O -1 14.70 -50.50 TD 30 6 303
1888 NA NA 15:00:00 TS 14.86 -50.76 1074 1070 _____________P -1 14.86 -50.76 TD 30 6 302
1888 NA NA 18:00:00 TS 15.00 -51.00 1077 1074 _____________O -1 15.00 -51.00 TD 30 5 299
1888 NA NA 21:00:00 TS 15.10 -51.20 1081 1078 _____________P -1 15.10 -51.20 TD 30 4 297
1888 NA NA 1888-10-30 00:00:00 TS 15.20 -51.40 1085 1082 _____________O -1 15.20 -51.40 TD 30 5 300
1888 NA NA 03:00:00 TS 15.35 -51.65 1101 1095 _____________P -1 15.35 -51.65 TD 30 6 302
1888 NA NA 06:00:00 TS 15.50 -51.90 1104 1101 _____________O -1 15.50 -51.90 TD 30 5 301
1888 NA NA 09:00:00 TS 15.61 -52.10 1109 1095 _____________P -1 15.61 -52.10 TD 30 4 297
1888 NA NA 12:00:00 TS 15.70 -52.30 1095 1082 _____________O -1 15.70 -52.30 TD 30 5 294
1888 NA NA 15:00:00 TS 15.80 -52.55 1082 1061 _____________P -1 15.80 -52.55 TD 30 5 293
1888 NA NA 18:00:00 TS 15.90 -52.80 1061 1049 _____________O -1 15.90 -52.80 TD 30 5 296
1888 NA NA 21:00:00 TS 16.01 -53.00 1049 1038 _____________P -1 16.01 -53.00 TD 30 4 297
1888 NA NA 1888-10-31 00:00:00 TS 16.10 -53.20 1038 1020 _____________O -1 16.10 -53.20 TD 30 5 288
1888 NA NA 03:00:00 TS 16.15 -53.45 1018 1001 _____________P -1 16.15 -53.45 TD 30 5 282
1888 NA NA 06:00:00 TS 16.20 -53.70 1001 991 _____________O -1 16.20 -53.70 TD 30 5 287
1888 NA NA 09:00:00 TS 16.28 -53.91 991 981 _____________P -1 16.28 -53.91 TD 30 4 297
1888 NA NA 12:00:00 TS 16.40 -54.10 981 972 _____________O -1 16.40 -54.10 TD 30 5 304
1888 NA NA 15:00:00 TS 16.54 -54.31 972 971 _____________P -1 16.54 -54.31 TD 30 5 308
1888 NA NA 18:00:00 TS 16.70 -54.50 971 971 _____________O -1 16.70 -54.50 TD 30 5 313
1888 NA NA 21:00:00 TS 16.85 -54.65 964 964 _____________P -1 16.85 -54.65 TD 30 4 316
1888 NA NA 1888-11-01 00:00:00 TS 17.00 -54.80 972 964 _____________O -1 17.00 -54.80 TD 30 5 313
1888 NA NA 03:00:00 TS 17.16 -55.00 974 966 _____________P -1 17.16 -55.00 TD 30 5 308
1888 NA NA 06:00:00 TS 17.30 -55.20 968 961 _____________O -1 17.30 -55.20 TD 30 4 306
1888 NA NA 09:00:00 TS 17.39 -55.34 969 963 _____________P -1 17.39 -55.34 TD 32 4 305
1888 NA NA 12:00:00 TS 17.50 -55.50 965 958 _____________O -1 17.50 -55.50 TS 35 5 308
1888 NA NA 15:00:00 TS 17.69 -55.73 969 963 _____________P -1 17.69 -55.73 TS 35 6 310
1888 NA NA 18:00:00 TS 17.90 -56.00 969 963 _____________O -1 17.90 -56.00 TS 35 6 310
1888 NA NA 21:00:00 TS 18.10 -56.25 970 960 _____________P -1 18.10 -56.25 TS 35 6 310
1888 NA NA 1888-11-02 00:00:00 TS 18.30 -56.50 960 938 _____________O -1 18.30 -56.50 TS 35 6 311
1888 NA NA 03:00:00 TS 18.51 -56.75 928 907 _____________P -1 18.51 -56.75 TS 35 6 310
1888 NA NA 06:00:00 TS 18.70 -57.00 907 886 _____________O -1 18.70 -57.00 TS 35 6 306
1888 NA NA 09:00:00 TS 18.85 -57.25 875 855 _____________P -1 18.85 -57.25 TS 37 6 302
1888 NA NA 12:00:00 TS 19.00 -57.50 855 835 _____________O -1 19.00 -57.50 TS 40 6 306
1888 NA NA 15:00:00 TS 19.19 -57.75 825 807 _____________P -1 19.19 -57.75 TS 40 6 310
1888 NA NA 18:00:00 TS 19.40 -58.00 807 787 _____________O -1 19.40 -58.00 TS 40 6 311
1888 NA NA 21:00:00 TS 19.60 -58.25 779 762 _____________P -1 19.60 -58.25 TS 40 6 310
1888 NA NA 1888-11-03 00:00:00 TS 19.80 -58.50 762 743 _____________O -1 19.80 -58.50 TS 40 6 311
1888 NA NA 03:00:00 TS 20.01 -58.75 736 721 _____________P -1 20.01 -58.75 TS 40 6 310
1888 NA NA 06:00:00 TS 20.20 -59.00 721 694 _____________O -1 20.20 -59.00 TS 40 6 304
1888 NA NA 09:00:00 TS 20.33 -59.27 694 677 _____________P -1 20.33 -59.27 TS 42 6 303
1888 NA NA 12:00:00 TS 20.50 -59.50 681 673 _____________O -1 20.50 -59.50 TS 45 6 323
1888 NA NA 15:00:00 TS 20.83 -59.67 673 673 _____________P -1 20.83 -59.67 TS 45 8 338
1888 NA NA 18:00:00 TS 21.20 -59.80 682 678 _____________O -1 21.20 -59.80 TS 45 7 342
1888 NA NA 21:00:00 TS 21.51 -59.91 689 689 _____________P -1 21.51 -59.91 TS 45 6 343
1888 NA NA 1888-11-04 00:00:00 TS 21.80 -60.00 697 694 _____________O -1 21.80 -60.00 TS 45 6 343
1888 NA NA 03:00:00 TS 22.10 -60.11 707 705 _____________P -1 22.10 -60.11 TS 45 6 343
1888 NA NA 06:00:00 TS 22.40 -60.20 718 718 _____________O -1 22.40 -60.20 TS 45 6 346
1888 NA NA 09:00:00 TS 22.71 -60.27 731 731 _____________P -1 22.71 -60.27 TS 47 6 352
1888 NA NA 12:00:00 TS 23.00 -60.30 753 753 _____________O -1 23.00 -60.30 TS 50 6 353
1888 NA NA 15:00:00 TS 23.26 -60.35 776 776 _____________P -1 23.26 -60.35 TS 50 5 10
1888 NA NA 18:00:00 TS 23.50 -60.20 799 799 _____________O -1 23.50 -60.20 TS 50 8 53
1888 NA NA 21:00:00 TS 23.75 -59.64 866 866 _____________P -1 23.75 -59.64 TS 50 12 66
1888 NA NA 1888-11-05 00:00:00 TS 24.00 -59.00 927 927 _____________O -1 24.00 -59.00 TS 50 10 61
1888 NA NA 03:00:00 TS 24.25 -58.66 964 964 _____________P -1 24.25 -58.66 TS 50 7 48
1888 NA NA 06:00:00 TS 24.50 -58.40 1009 1009 _____________O -1 24.50 -58.40 TS 50 7 47
1888 NA NA 09:00:00 TS 24.73 -58.09 1047 1047 _____________P -1 24.73 -58.09 TS 50 8 52
1888 NA NA 12:00:00 TS 25.00 -57.70 1099 1099 _____________O -1 25.00 -57.70 TS 50 10 54
1888 NA NA 15:00:00 TS 25.34 -57.17 1159 1159 _____________P -1 25.34 -57.17 TS 50 12 55
1888 NA NA 18:00:00 TS 25.70 -56.60 1234 1234 _____________O -1 25.70 -56.60 TS 50 12 54
1888 NA NA 21:00:00 TS 26.05 -56.10 1294 1294 _____________P -1 26.05 -56.10 TS 50 11 52
1888 NA NA 1888-11-06 00:00:00 TS 26.40 -55.60 1361 1361 _____________O -1 26.40 -55.60 TS 50 12 53
1888 NA NA 03:00:00 TS 26.76 -55.05 1435 1435 _____________P -1 26.76 -55.05 TS 50 12 55
1888 NA NA 06:00:00 TS 27.10 -54.50 1495 1495 _____________O -1 27.10 -54.50 TS 50 11 57
1888 NA NA 09:00:00 TS 27.36 -54.01 1554 1554 _____________P -1 27.36 -54.01 TS 50 11 56
1888 NA NA 12:00:00 TS 27.70 -53.50 1614 1614 _____________O -1 27.70 -53.50 TS 50 13 47
1888 NA NA 15:00:00 TS 28.26 -52.91 1701 1701 _____________P -1 28.26 -52.91 TS 50 16 41
1888 NA NA 18:00:00 TS 28.90 -52.30 1789 1789 _____________O -1 28.90 -52.30 TS 50 16 39
1888 NA NA 21:00:00 TS 29.50 -51.74 1876 1845 _____________P -1 29.50 -51.74 TS 50 15 39
1888 NA NA 1888-11-07 00:00:00 TS 30.10 -51.20 1845 1783 _____________O -1 30.10 -51.20 TS 50 15 38
1888 NA NA 03:00:00 TS 30.70 -50.65 1784 1723 _____________P -1 30.70 -50.65 TS 50 15 38
1888 NA NA 06:00:00 TS 31.30 -50.10 1723 1664 _____________O -1 31.30 -50.10 TS 50 15 37
1888 NA NA 09:00:00 TS 31.94 -49.56 1664 1609 _____________P -1 31.94 -49.56 TS 47 15 38
1888 NA NA 12:00:00 TS 32.50 -49.00 1609 1577 _____________O -1 32.50 -49.00 TS 45 14 47
1888 NA NA 15:00:00 TS 32.89 -48.36 1577 1559 _____________P -1 32.89 -48.36 TS 45 13 57
1888 NA NA 18:00:00 TS 33.20 -47.70 1561 1543 _____________O -1 33.20 -47.70 TS 45 12 60
1888 NA NA 21:00:00 TS 33.51 -47.10 1545 1528 _____________P -1 33.51 -47.10 TS 45 12 59
1888 NA NA 1888-11-08 00:00:00 ET 33.80 -46.50 1531 1519 _____________O -1 33.80 -46.50 EX 45 12 60
1888 NA NA 03:00:00 ET 34.10 -45.85 1523 1506 _____________P -1 34.10 -45.85 EX 42 12 61
1888 NA NA 06:00:00 ET 34.40 -45.20 1513 1513 _____________O -1 34.40 -45.20 EX 40 10 86
1888 NA NA 09:00:00 ET 34.16 -44.65 1553 1511 _____________P -1 34.16 -44.65 EX 37 12 59
1888 NA NA 12:00:00 ET 35.00 -44.00 1501 1262 _____________O -1 35.00 -44.00 EX 35 42 18
1888 NA NA 15:00:00 ET 38.18 -43.02 1250 1002 _____________P -1 38.18 -43.02 EX 35 80 13
1888 NA NA 18:00:00 ET 42.80 -41.70 991 _____________O -1 42.80 -41.70 EX 35 94 12